Time;durP1;ratioP1;P1;durP2;ratioP2;P2;SDS_P1;SDS_P2;PMS_P1;PMS_P2;Temp;Humidity;BMP_temperature;BMP_pressure;BME280_temperature;BME280_humidity;BME280_pressure;Samples;Min_cycle;Max_cycle;Signal;HPM_P1;HPM_P2
2021/03/11 00:00:13;;;;;;;14.65;8.65;;;8.10;41.50;;;;;;5053026;28;20033;-73
2021/03/11 00:02:40;;;;;;;15.50;9.80;;;8.10;41.40;;;;;;5052996;28;20371;-73
2021/03/11 00:05:09;;;;;;;16.45;9.90;;;8.20;41.40;;;;;;5053101;28;20022;-73
2021/03/11 00:07:36;;;;;;;15.18;8.68;;;8.20;41.50;;;;;;5052801;28;20041;-75
2021/03/11 00:10:02;;;;;;;16.90;9.70;;;8.10;41.20;;;;;;5052867;28;20028;-74
2021/03/11 00:12:28;;;;;;;14.60;8.10;;;8.20;41.60;;;;;;5052839;28;20025;-75
2021/03/11 00:14:54;;;;;;;13.60;8.00;;;8.20;41.40;;;;;;5052635;28;20140;-74
2021/03/11 00:17:19;;;;;;;17.85;8.88;;;8.20;40.80;;;;;;5052727;28;20460;-72
2021/03/11 00:19:45;;;;;;;13.90;8.23;;;8.30;40.30;;;;;;5052717;28;20032;-73
2021/03/11 00:22:11;;;;;;;14.60;7.82;;;8.30;39.70;;;;;;5052750;28;20043;-72
2021/03/11 00:24:36;;;;;;;11.73;7.40;;;8.40;39.10;;;;;;5052764;28;20036;-73
2021/03/11 00:27:02;;;;;;;13.13;7.60;;;8.50;38.40;;;;;;5052554;28;20056;-73
2021/03/11 00:29:28;;;;;;;13.40;7.25;;;8.50;38.00;;;;;;5052499;28;20043;-73
2021/03/11 00:31:54;;;;;;;15.15;6.78;;;8.60;37.50;;;;;;5034936;28;20104;-73
2021/03/11 00:34:20;;;;;;;11.32;6.90;;;8.60;36.90;;;;;;5052467;28;20064;-73
2021/03/11 00:36:46;;;;;;;14.40;7.43;;;8.60;36.70;;;;;;5052341;28;20025;-73
2021/03/11 00:39:12;;;;;;;14.55;7.07;;;8.60;36.40;;;;;;5052404;28;20478;-73
2021/03/11 00:41:37;;;;;;;12.45;6.57;;;8.70;36.50;;;;;;5052435;28;20017;-73
2021/03/11 00:44:03;;;;;;;11.52;7.35;;;8.70;36.40;;;;;;5052277;28;20439;-73
2021/03/11 00:46:28;;;;;;;13.27;6.88;;;8.70;36.40;;;;;;5052607;28;20478;-73
2021/03/11 00:48:54;;;;;;;11.27;6.57;;;8.60;36.50;;;;;;5052527;28;20040;-73
2021/03/11 00:51:19;;;;;;;10.50;6.43;;;8.50;36.60;;;;;;5054408;28;20025;-73
2021/03/11 00:53:45;;;;;;;12.05;6.53;;;8.60;36.80;;;;;;5072458;28;20053;-74
2021/03/11 00:56:10;;;;;;;10.77;6.53;;;8.50;36.90;;;;;;5057119;28;20382;-72
2021/03/11 00:58:36;;;;;;;10.77;6.40;;;8.50;37.10;;;;;;5054333;28;20494;-74
2021/03/11 01:01:03;;;;;;;10.85;5.63;;;8.50;37.20;;;;;;5056711;28;20037;-74
2021/03/11 01:03:28;;;;;;;12.80;6.57;;;8.50;37.30;;;;;;5058765;28;20025;-74
2021/03/11 01:06:00;;;;;;;14.68;6.25;;;8.50;37.40;;;;;;5058414;28;20036;-74
2021/03/11 01:08:25;;;;;;;9.68;5.85;;;8.40;37.60;;;;;;5062651;28;20029;-74
2021/03/11 01:10:51;;;;;;;9.77;5.95;;;8.50;37.90;;;;;;5060217;28;20032;-74
2021/03/11 01:13:18;;;;;;;9.75;5.45;;;8.40;38.10;;;;;;5058646;28;20049;-73
2021/03/11 01:15:44;;;;;;;10.43;6.13;;;8.40;38.30;;;;;;5056685;28;20048;-74
2021/03/11 01:18:12;;;;;;;12.15;5.60;;;8.40;38.50;;;;;;5055900;28;20014;-73
2021/03/11 01:20:38;;;;;;;9.60;4.78;;;8.40;38.70;;;;;;5055894;28;20111;-72
2021/03/11 01:23:04;;;;;;;8.27;4.70;;;8.40;39.20;;;;;;5055778;28;20072;-73
2021/03/11 01:25:30;;;;;;;9.77;4.85;;;8.40;39.60;;;;;;5055917;28;20381;-72
2021/03/11 01:27:55;;;;;;;10.38;5.47;;;8.40;40.00;;;;;;5055436;28;20099;-74
2021/03/11 01:30:21;;;;;;;8.70;5.30;;;8.40;40.40;;;;;;5055739;28;20021;-73
2021/03/11 01:32:47;;;;;;;7.72;4.43;;;8.30;40.70;;;;;;5055482;28;20083;-72
2021/03/11 01:35:13;;;;;;;8.82;4.15;;;8.30;41.00;;;;;;5055371;28;20037;-73
2021/03/11 01:37:39;;;;;;;8.35;3.88;;;8.30;41.10;;;;;;5055333;28;20028;-74
2021/03/11 01:40:07;;;;;;;6.70;3.95;;;8.30;41.40;;;;;;5055395;28;20359;-74
2021/03/11 01:42:34;;;;;;;7.18;3.60;;;8.30;41.90;;;;;;5055326;28;20029;-73
2021/03/11 01:45:00;;;;;;;6.13;3.47;;;8.20;42.10;;;;;;5055296;28;20124;-72
2021/03/11 01:47:25;;;;;;;6.50;3.65;;;8.30;42.50;;;;;;5037364;28;20044;-73
2021/03/11 01:49:51;;;;;;;6.35;3.55;;;8.30;42.50;;;;;;5037232;28;20025;-73
2021/03/11 01:52:17;;;;;;;6.75;3.17;;;8.40;43.10;;;;;;5055283;28;20504;-72
2021/03/11 01:54:43;;;;;;;7.78;3.30;;;8.40;43.70;;;;;;5055173;28;20385;-72
2021/03/11 01:57:08;;;;;;;6.85;3.25;;;8.40;43.90;;;;;;5054990;28;20032;-74
2021/03/11 01:59:35;;;;;;;6.18;3.50;;;8.40;44.10;;;;;;5055428;28;20029;-73
2021/03/11 02:02:01;;;;;;;7.80;3.58;;;8.40;43.90;;;;;;5055175;28;20040;-74
2021/03/11 02:04:26;;;;;;;7.45;3.33;;;8.60;43.50;;;;;;5055065;28;20017;-73
2021/03/11 02:06:52;;;;;;;6.70;3.20;;;8.60;43.20;;;;;;5055096;28;20029;-73
2021/03/11 02:09:18;;;;;;;6.53;3.42;;;8.70;43.30;;;;;;5054338;28;20032;-73
2021/03/11 02:12:06;;;;;;;8.18;3.53;;;8.60;43.00;;;;;;5054788;28;20373;-73
2021/03/11 02:14:54;;;;;;;7.05;3.45;;;8.60;43.80;;;;;;5054965;28;20048;-74
2021/03/11 02:17:24;;;;;;;6.18;3.25;;;8.70;42.60;;;;;;5037109;28;20473;-72
2021/03/11 02:19:58;;;;;;;6.78;3.22;;;8.70;42.50;;;;;;5055065;28;20029;-73
2021/03/11 02:22:50;;;;;;;6.13;3.10;;;8.80;42.10;;;;;;5054982;28;20519;-72
2021/03/11 02:25:33;;;;;;;5.05;3.10;;;8.80;41.90;;;;;;5037160;28;20025;-72
2021/03/11 02:28:23;;;;;;;6.60;3.78;;;8.90;41.60;;;;;;5054814;28;20405;-73
2021/03/11 02:30:49;;;;;;;6.43;3.72;;;8.90;41.30;;;;;;5054534;28;20021;-72
2021/03/11 02:33:16;;;;;;;6.40;3.65;;;8.90;41.30;;;;;;5036831;28;20120;-75
2021/03/11 02:35:42;;;;;;;9.30;3.67;;;8.90;41.10;;;;;;5054511;28;20394;-73
2021/03/11 02:38:11;;;;;;;7.18;3.83;;;8.90;41.20;;;;;;5054492;28;20048;-72
2021/03/11 02:40:39;;;;;;;8.70;3.78;;;8.90;41.20;;;;;;5054412;28;20433;-74
2021/03/11 02:43:09;;;;;;;8.85;4.50;;;8.90;41.10;;;;;;5054327;28;20040;-75
2021/03/11 02:45:35;;;;;;;19.75;5.30;;;8.90;41.00;;;;;;5054376;28;20033;-74
2021/03/11 02:48:07;;;;;;;5.70;3.88;;;9.00;40.90;;;;;;5054366;28;20395;-73
2021/03/11 02:50:35;;;;;;;9.80;4.32;;;9.00;40.80;;;;;;5054356;28;20021;-72
2021/03/11 02:53:03;;;;;;;8.82;5.05;;;9.00;40.70;;;;;;5054219;28;20039;-72
2021/03/11 02:55:33;;;;;;;8.27;4.57;;;9.00;40.90;;;;;;5054094;28;20120;-73
2021/03/11 02:58:00;;;;;;;8.52;4.68;;;9.10;41.00;;;;;;5054164;28;20025;-73
2021/03/11 03:00:27;;;;;;;7.72;4.25;;;9.10;41.20;;;;;;5054170;28;20433;-73
2021/03/11 03:02:54;;;;;;;7.13;4.68;;;9.10;41.30;;;;;;5054001;28;20021;-73
2021/03/11 03:05:22;;;;;;;6.78;3.90;;;9.10;41.30;;;;;;5053870;28;20028;-73
2021/03/11 03:07:50;;;;;;;8.90;4.30;;;9.10;41.40;;;;;;5053858;28;20025;-74
2021/03/11 03:10:22;;;;;;;10.38;5.07;;;9.10;41.50;;;;;;5053889;28;20049;-74
2021/03/11 03:12:50;;;;;;;7.90;4.05;;;9.10;41.60;;;;;;5035641;28;20401;-73
2021/03/11 03:15:18;;;;;;;8.18;4.43;;;9.10;41.70;;;;;;5035934;28;20033;-73
2021/03/11 03:17:47;;;;;;;6.95;4.25;;;9.10;41.80;;;;;;5053685;28;20035;-73
2021/03/11 03:20:15;;;;;;;8.85;4.78;;;9.10;41.90;;;;;;5053149;28;20057;-73
2021/03/11 03:22:41;;;;;;;7.55;4.40;;;9.10;41.90;;;;;;5053240;28;20066;-73
2021/03/11 03:25:08;;;;;;;8.93;3.90;;;9.10;41.90;;;;;;5053429;28;20100;-73
2021/03/11 03:27:34;;;;;;;7.47;4.65;;;9.20;41.90;;;;;;5053546;28;20036;-73
2021/03/11 03:30:01;;;;;;;8.80;4.72;;;9.20;41.80;;;;;;5053259;28;20025;-74
2021/03/11 03:32:26;;;;;;;8.90;4.50;;;9.10;41.80;;;;;;5053644;28;20028;-73
2021/03/11 03:34:52;;;;;;;9.05;4.53;;;9.20;41.70;;;;;;5035414;28;20045;-73
2021/03/11 03:37:17;;;;;;;6.80;3.95;;;9.20;41.90;;;;;;5053222;28;20531;-73
2021/03/11 03:39:43;;;;;;;6.93;4.40;;;9.20;42.10;;;;;;5053273;28;20037;-74
2021/03/11 03:42:12;;;;;;;6.70;4.25;;;9.20;42.40;;;;;;5070102;28;20029;-74
2021/03/11 03:44:41;;;;;;;10.93;4.78;;;9.30;42.70;;;;;;5059993;28;20044;-73
2021/03/11 03:47:10;;;;;;;10.77;5.10;;;9.30;42.70;;;;;;5053258;28;20048;-75
2021/03/11 03:49:37;;;;;;;11.02;4.20;;;9.20;42.80;;;;;;5053435;28;20032;-74
2021/03/11 03:52:06;;;;;;;9.65;5.00;;;9.20;43.00;;;;;;5052810;28;20053;-73
2021/03/11 03:54:37;;;;;;;6.75;4.40;;;9.20;43.00;;;;;;5052843;28;20523;-74
2021/03/11 03:57:09;;;;;;;8.18;4.43;;;9.20;43.00;;;;;;5052880;28;20104;-74
2021/03/11 03:59:37;;;;;;;9.00;4.75;;;9.20;43.00;;;;;;5053118;28;20029;-74
2021/03/11 04:02:06;;;;;;;9.98;4.32;;;9.20;43.10;;;;;;5052667;28;20473;-74
2021/03/11 04:04:47;;;;;;;9.02;4.55;;;9.10;43.80;;;;;;5052873;28;20037;-74
2021/03/11 04:07:17;;;;;;;9.77;4.55;;;9.10;44.20;;;;;;5052879;28;20094;-74
2021/03/11 04:09:43;;;;;;;9.20;4.32;;;9.10;45.40;;;;;;5052579;28;20133;-73
2021/03/11 04:12:10;;;;;;;7.40;4.60;;;9.10;46.60;;;;;;5053063;28;20025;-73
2021/03/11 04:14:38;;;;;;;6.88;3.40;;;9.00;47.60;;;;;;5055920;28;20048;-73
2021/03/11 04:17:05;;;;;;;6.82;3.55;;;9.00;48.50;;;;;;5053202;28;20052;-73
2021/03/11 04:19:34;;;;;;;7.88;3.90;;;8.90;49.60;;;;;;5058558;28;20028;-73
2021/03/11 04:22:01;;;;;;;9.48;4.50;;;8.90;50.70;;;;;;5052718;28;20029;-73
2021/03/11 04:24:27;;;;;;;6.80;4.03;;;8.80;51.90;;;;;;5054769;28;20473;-73
2021/03/11 04:26:52;;;;;;;6.45;4.28;;;8.80;52.80;;;;;;5052625;28;20070;-73
2021/03/11 04:29:18;;;;;;;8.55;4.05;;;8.80;53.90;;;;;;5052528;28;20025;-73
2021/03/11 04:31:44;;;;;;;8.55;3.97;;;8.70;55.30;;;;;;5052466;28;20381;-74
2021/03/11 04:34:10;;;;;;;6.93;4.07;;;8.60;57.30;;;;;;5052434;28;20041;-73
2021/03/11 04:36:36;;;;;;;6.43;3.75;;;8.40;59.30;;;;;;5052474;28;20024;-73
2021/03/11 04:39:03;;;;;;;8.25;4.50;;;8.30;61.00;;;;;;5052412;28;20087;-73
2021/03/11 04:41:28;;;;;;;11.13;4.68;;;8.20;62.20;;;;;;5052297;28;20469;-74
2021/03/11 04:43:55;;;;;;;9.57;4.63;;;8.20;62.40;;;;;;5052221;28;20036;-73
2021/03/11 04:46:22;;;;;;;6.38;3.90;;;8.20;61.90;;;;;;5052270;28;20036;-74
2021/03/11 04:48:50;;;;;;;7.38;4.65;;;8.20;61.30;;;;;;5052240;28;20462;-74
2021/03/11 04:51:17;;;;;;;6.55;4.20;;;8.20;60.80;;;;;;5052238;28;20100;-73
2021/03/11 04:53:43;;;;;;;6.03;3.70;;;8.30;60.70;;;;;;5052048;28;20493;-74
2021/03/11 04:56:10;;;;;;;8.63;4.22;;;8.30;60.70;;;;;;5052175;28;20112;-74
2021/03/11 04:58:39;;;;;;;6.38;3.75;;;8.40;60.60;;;;;;5052466;28;20079;-73
2021/03/11 05:01:16;;;;;;;5.97;3.42;;;8.40;60.30;;;;;;5052446;28;20484;-74
2021/03/11 05:03:44;;;;;;;6.68;3.80;;;8.50;60.00;;;;;;5052399;28;20473;-74
2021/03/11 05:06:10;;;;;;;8.73;3.58;;;8.40;60.00;;;;;;5052449;28;20112;-73
2021/03/11 05:08:36;;;;;;;4.55;3.05;;;8.40;60.10;;;;;;5052545;28;20033;-73
2021/03/11 05:11:02;;;;;;;7.22;3.60;;;8.40;61.00;;;;;;5052449;28;20116;-73
2021/03/11 05:13:30;;;;;;;3.70;2.78;;;8.40;61.60;;;;;;5052228;28;20099;-74
2021/03/11 05:15:56;;;;;;;5.15;2.85;;;8.40;61.90;;;;;;5052407;28;20075;-73
2021/03/11 05:18:22;;;;;;;6.05;3.30;;;8.40;62.30;;;;;;5052413;28;20508;-73
2021/03/11 05:20:47;;;;;;;7.63;3.80;;;8.40;63.40;;;;;;5052381;28;20104;-73
2021/03/11 05:23:13;;;;;;;5.72;3.60;;;8.40;62.70;;;;;;5052405;28;20104;-73
2021/03/11 05:25:38;;;;;;;6.03;3.30;;;8.40;62.90;;;;;;5052635;28;20053;-73
2021/03/11 05:28:04;;;;;;;5.47;2.95;;;8.50;63.30;;;;;;5052478;28;20032;-73
2021/03/11 05:30:30;;;;;;;4.00;3.17;;;8.40;63.60;;;;;;5052497;28;20370;-73
2021/03/11 05:32:55;;;;;;;5.50;3.25;;;8.50;64.20;;;;;;5052318;28;20060;-74
2021/03/11 05:35:21;;;;;;;7.38;3.70;;;8.50;64.60;;;;;;5052504;28;20509;-73
2021/03/11 05:37:46;;;;;;;6.28;3.55;;;8.50;65.10;;;;;;5051856;28;20135;-73
2021/03/11 05:40:12;;;;;;;5.50;3.50;;;8.50;65.30;;;;;;5052268;28;20032;-73
2021/03/11 05:42:39;;;;;;;5.25;3.17;;;8.50;65.50;;;;;;5052247;28;20017;-73
2021/03/11 05:45:08;;;;;;;6.70;3.40;;;8.50;65.40;;;;;;5054435;28;20528;-73
2021/03/11 05:47:35;;;;;;;5.90;3.30;;;8.60;65.30;;;;;;5055841;28;20114;-73
2021/03/11 05:50:03;;;;;;;5.70;3.20;;;8.50;65.30;;;;;;5055741;28;20068;-73
2021/03/11 05:52:30;;;;;;;6.70;3.95;;;8.50;65.40;;;;;;5055660;28;20013;-73
2021/03/11 05:54:58;;;;;;;5.97;3.67;;;8.50;65.40;;;;;;5055517;28;20171;-73
2021/03/11 05:57:23;;;;;;;6.43;3.20;;;8.50;65.40;;;;;;5055593;28;20031;-72
2021/03/11 05:59:53;;;;;;;4.82;3.28;;;8.50;65.40;;;;;;5055585;28;20104;-72
2021/03/11 06:02:20;;;;;;;6.55;3.58;;;8.60;65.40;;;;;;5055552;28;20021;-72
2021/03/11 06:04:48;;;;;;;4.63;3.08;;;8.60;65.10;;;;;;5055323;28;20037;-73
2021/03/11 06:07:14;;;;;;;5.32;3.20;;;8.60;64.90;;;;;;5055475;28;20049;-73
2021/03/11 06:09:40;;;;;;;8.02;3.67;;;8.60;64.80;;;;;;5055430;28;20500;-73
2021/03/11 06:12:08;;;;;;;6.80;3.42;;;8.70;64.60;;;;;;5055320;28;20422;-73
2021/03/11 06:14:36;;;;;;;6.28;3.30;;;8.70;64.30;;;;;;5055030;28;20048;-73
2021/03/11 06:17:08;;;;;;;6.20;3.70;;;8.80;63.80;;;;;;5055065;28;20504;-73
2021/03/11 06:19:34;;;;;;;7.00;4.03;;;8.80;63.40;;;;;;5054823;28;20056;-73
2021/03/11 06:22:02;;;;;;;5.75;3.47;;;8.90;63.00;;;;;;5036860;28;20025;-73
2021/03/11 06:24:27;;;;;;;5.13;2.88;;;8.90;62.70;;;;;;5037125;28;20474;-72
2021/03/11 06:26:53;;;;;;;6.03;3.10;;;9.00;62.30;;;;;;5054806;28;20025;-72
2021/03/11 06:29:33;;;;;;;6.15;2.88;;;9.10;62.00;;;;;;5054720;28;20103;-72
2021/03/11 06:31:59;;;;;;;7.00;2.97;;;9.10;61.50;;;;;;5054819;28;20056;-72
2021/03/11 06:34:26;;;;;;;8.00;2.95;;;9.10;61.10;;;;;;5054445;28;20072;-74
2021/03/11 06:36:52;;;;;;;4.75;2.90;;;9.20;60.70;;;;;;5054541;28;20070;-74
2021/03/11 06:39:26;;;;;;;8.88;3.50;;;9.30;60.10;;;;;;5054681;28;20107;-74
2021/03/11 06:41:52;;;;;;;4.03;2.22;;;9.30;59.60;;;;;;5054570;28;20052;-75
2021/03/11 06:44:31;;;;;;;6.70;2.75;;;9.40;60.10;;;;;;5054794;28;20028;-76
2021/03/11 06:47:02;;;;;;;5.47;2.28;;;9.70;59.30;;;;;;5054421;28;20029;-75
2021/03/11 06:49:28;;;;;;;6.93;2.38;;;9.90;58.20;;;;;;5054494;28;20021;-80
2021/03/11 06:52:07;;;;;;;4.60;2.28;;;9.90;57.60;;;;;;5054215;28;20080;-76
2021/03/11 06:54:55;;;;;;;4.85;2.30;;;10.00;56.80;;;;;;5054489;28;20033;-77
2021/03/11 06:57:28;;;;;;;4.43;2.13;;;10.00;56.60;;;;;;5036289;28;20446;-77
2021/03/11 06:59:53;;;;;;;3.80;2.30;;;9.90;56.60;;;;;;5054180;28;20600;-76
2021/03/11 07:02:24;;;;;;;2.65;2.10;;;9.90;56.70;;;;;;5036143;28;20029;-77
2021/03/11 07:04:49;;;;;;;5.45;2.42;;;9.90;56.70;;;;;;5054157;28;20498;-75
2021/03/11 07:07:16;;;;;;;4.28;2.45;;;10.00;56.40;;;;;;5054080;28;20031;-76
2021/03/11 07:09:42;;;;;;;3.83;2.13;;;9.90;56.10;;;;;;5054071;28;20549;-77
2021/03/11 07:12:08;;;;;;;7.70;2.88;;;9.80;56.50;;;;;;5054125;28;20075;-74
2021/03/11 07:14:34;;;;;;;2.88;2.05;;;9.80;56.70;;;;;;5053673;28;20045;-74
2021/03/11 07:17:24;;;;;;;4.15;2.35;;;9.70;56.80;;;;;;5053938;28;20490;-73
2021/03/11 07:20:16;;;;;;;4.90;2.83;;;9.70;57.00;;;;;;5053702;28;20378;-73
2021/03/11 07:22:59;;;;;;;4.32;2.47;;;9.80;57.00;;;;;;5035587;28;20366;-72
2021/03/11 07:25:27;;;;;;;4.90;2.10;;;9.90;56.90;;;;;;5053748;28;20150;-75
2021/03/11 07:27:53;;;;;;;3.50;2.40;;;10.00;56.50;;;;;;5053585;28;20013;-74
2021/03/11 07:30:20;;;;;;;8.35;2.72;;;10.00;56.40;;;;;;5053559;28;20029;-73
2021/03/11 07:32:46;;;;;;;4.30;2.35;;;10.00;56.30;;;;;;5053370;28;20473;-74
2021/03/11 07:35:16;;;;;;;3.88;2.28;;;10.00;56.40;;;;;;5053443;28;20036;-73
2021/03/11 07:37:47;;;;;;;7.13;2.45;;;10.00;56.70;;;;;;5053557;28;20031;-73
2021/03/11 07:40:13;;;;;;;4.72;2.20;;;10.10;56.60;;;;;;5053699;28;20057;-72
2021/03/11 07:42:41;;;;;;;2.65;1.90;;;10.20;56.50;;;;;;5053560;28;20021;-73
2021/03/11 07:45:10;;;;;;;3.13;1.80;;;10.30;56.50;;;;;;5053206;28;20039;-74
2021/03/11 07:47:36;;;;;;;3.00;1.95;;;10.40;56.20;;;;;;5053329;28;20412;-74
2021/03/11 07:50:03;;;;;;;8.68;5.32;;;10.50;56.30;;;;;;5052830;28;20074;-74
2021/03/11 07:52:29;;;;;;;5.28;2.50;;;10.40;56.40;;;;;;5052971;28;20040;-74
2021/03/11 07:54:55;;;;;;;3.55;1.77;;;10.30;56.60;;;;;;5052860;28;20489;-74
2021/03/11 07:57:21;;;;;;;3.92;2.10;;;10.30;56.80;;;;;;5033401;28;20025;-74
2021/03/11 07:59:47;;;;;;;5.55;1.75;;;10.30;57.00;;;;;;5051418;28;20072;-73
2021/03/11 08:02:17;;;;;;;3.30;1.50;;;10.40;57.20;;;;;;5052794;28;20458;-72
2021/03/11 08:04:43;;;;;;;3.75;1.73;;;10.40;57.00;;;;;;5052395;28;20029;-74
2021/03/11 08:07:23;;;;;;;3.88;1.88;;;10.40;57.00;;;;;;5052315;28;20025;-73
2021/03/11 08:09:51;;;;;;;5.47;1.95;;;10.40;57.10;;;;;;5034606;28;20465;-74
2021/03/11 08:12:34;;;;;;;2.75;1.73;;;10.50;57.00;;;;;;5052565;28;20028;-74
2021/03/11 08:15:03;;;;;;;3.42;1.90;;;10.50;56.90;;;;;;5032629;28;20052;-73
2021/03/11 08:17:46;;;;;;;3.38;1.88;;;10.50;56.80;;;;;;5032785;28;20022;-74
2021/03/11 08:20:24;;;;;;;3.83;1.60;;;10.60;56.70;;;;;;5032634;28;20056;-73
2021/03/11 08:22:53;;;;;;;2.72;1.63;;;10.60;56.50;;;;;;5032815;28;20026;-72
2021/03/11 08:25:34;;;;;;;3.10;1.50;;;10.70;56.70;;;;;;5032511;28;20493;-73
2021/03/11 08:28:00;;;;;;;3.05;1.42;;;10.80;56.50;;;;;;5016794;28;20061;-72
2021/03/11 08:30:50;;;;;;;4.20;1.73;;;10.80;56.20;;;;;;5012621;28;20511;-73
2021/03/11 08:33:18;;;;;;;2.50;1.40;;;10.90;56.20;;;;;;5012763;28;20076;-72
2021/03/11 08:35:52;;;;;;;2.67;1.20;;;10.80;56.20;;;;;;5012558;28;20037;-73
2021/03/11 08:38:20;;;;;;;5.63;1.38;;;10.80;56.20;;;;;;5012591;28;20026;-73
2021/03/11 08:40:52;;;;;;;6.68;1.70;;;10.80;56.50;;;;;;5012860;28;20022;-73
2021/03/11 08:46:06;;;;;;;3.13;1.17;;;10.90;56.70;;;;;;5012759;28;20037;-73
2021/03/11 08:49:03;;;;;;;3.78;1.23;;;11.00;56.60;;;;;;5012913;28;20479;-73
2021/03/11 08:51:29;;;;;;;4.00;1.48;;;11.00;56.80;;;;;;5012853;28;20026;-73
2021/03/11 08:54:20;;;;;;;2.67;1.13;;;11.00;56.70;;;;;;5012773;28;20544;-73
2021/03/11 08:56:45;;;;;;;2.13;1.30;;;11.10;56.70;;;;;;5012852;28;20108;-73
2021/03/11 08:59:12;;;;;;;3.03;1.13;;;11.10;56.80;;;;;;5012750;28;20029;-73
2021/03/11 09:02:24;;;;;;;5.03;1.67;;;11.10;56.90;;;;;;5012534;28;20056;-73
2021/03/11 09:04:50;;;;;;;4.65;1.52;;;11.20;56.90;;;;;;5012065;28;20101;-72
2021/03/11 09:07:35;;;;;;;2.78;1.20;;;11.30;56.80;;;;;;5012627;28;20057;-74
2021/03/11 09:10:03;;;;;;;6.32;1.35;;;11.50;56.60;;;;;;4995201;28;20029;-73
2021/03/11 09:12:35;;;;;;;3.67;1.23;;;11.60;56.30;;;;;;5013558;28;20117;-73
2021/03/11 09:15:02;;;;;;;4.25;0.95;;;11.70;56.00;;;;;;5032665;28;20033;-72
2021/03/11 09:17:33;;;;;;;2.22;1.00;;;11.80;55.70;;;;;;5033550;28;20091;-72
2021/03/11 09:20:01;;;;;;;2.38;0.90;;;11.90;55.70;;;;;;5016912;28;20064;-73
2021/03/11 09:22:39;;;;;;;2.95;0.93;;;12.00;55.60;;;;;;5036256;28;20099;-73
2021/03/11 09:25:22;;;;;;;1.95;0.90;;;12.10;55.70;;;;;;5036155;28;20033;-73
2021/03/11 09:27:59;;;;;;;3.45;0.90;;;12.30;55.70;;;;;;5039662;28;20025;-73
2021/03/11 09:30:26;;;;;;;5.80;1.40;;;12.40;54.60;;;;;;5042776;28;20123;-72
2021/03/11 09:32:52;;;;;;;3.72;0.80;;;12.60;54.40;;;;;;5046618;28;20067;-72
2021/03/11 09:35:18;;;;;;;3.42;0.82;;;12.60;54.10;;;;;;5035422;28;20045;-73
2021/03/11 09:37:43;;;;;;;2.97;0.80;;;12.50;54.10;;;;;;5035760;28;20079;-72
2021/03/11 09:40:10;;;;;;;3.75;1.00;;;12.60;53.90;;;;;;5035948;28;20429;-73
2021/03/11 09:42:36;;;;;;;1.05;0.95;;;12.50;53.80;;;;;;5018013;28;20029;-74
2021/03/11 09:45:03;;;;;;;1.00;0.90;;;12.60;54.10;;;;;;5017908;28;20028;-74
2021/03/11 09:47:29;;;;;;;1.20;0.70;;;12.70;54.10;;;;;;5035780;28;20018;-73
2021/03/11 09:50:10;;;;;;;3.38;0.80;;;12.70;53.90;;;;;;5035420;28;20544;-73
2021/03/11 09:52:57;;;;;;;3.05;0.93;;;12.80;53.90;;;;;;5035811;28;20032;-73
2021/03/11 09:55:22;;;;;;;2.38;0.85;;;12.80;53.60;;;;;;5035472;28;20120;-73
2021/03/11 09:57:48;;;;;;;1.88;0.85;;;12.70;53.70;;;;;;5035372;28;20105;-73
2021/03/11 10:00:14;;;;;;;2.17;0.93;;;12.90;54.10;;;;;;5035639;28;20029;-72
2021/03/11 10:02:47;;;;;;;0.98;0.65;;;13.00;53.90;;;;;;5017855;28;20102;-74
2021/03/11 10:05:13;;;;;;;1.80;0.57;;;13.10;54.30;;;;;;5035066;28;20057;-71
2021/03/11 10:07:39;;;;;;;2.65;0.60;;;13.10;54.20;;;;;;5035672;28;20370;-73
2021/03/11 10:10:13;;;;;;;1.35;0.70;;;13.20;54.20;;;;;;5035452;28;20226;-71
2021/03/11 10:12:42;;;;;;;2.47;0.50;;;13.20;54.30;;;;;;5037886;28;20022;-71
2021/03/11 10:15:10;;;;;;;0.95;0.63;;;13.20;54.60;;;;;;5055004;28;20041;-72
2021/03/11 10:17:37;;;;;;;1.17;0.60;;;13.20;55.00;;;;;;5054832;28;20021;-72
2021/03/11 10:20:24;;;;;;;2.85;0.45;;;13.30;55.00;;;;;;5037010;28;20029;-72
2021/03/11 10:22:50;;;;;;;2.72;0.60;;;13.40;55.20;;;;;;5054789;28;20432;-72
2021/03/11 10:25:17;;;;;;;1.38;0.50;;;13.40;55.10;;;;;;5054703;28;20100;-71
2021/03/11 10:27:45;;;;;;;1.02;0.50;;;13.50;55.20;;;;;;5054724;28;20055;-71
2021/03/11 10:30:27;;;;;;;4.05;0.60;;;13.50;55.10;;;;;;5054376;28;20462;-72
2021/03/11 10:33:04;;;;;;;0.77;0.55;;;13.70;54.90;;;;;;5054772;28;20074;-71
2021/03/11 10:35:31;;;;;;;1.15;0.50;;;13.70;55.00;;;;;;5054519;28;20040;-72
2021/03/11 10:38:24;;;;;;;0.70;0.70;;;13.80;55.00;;;;;;5054572;28;20071;-72
2021/03/11 10:40:52;;;;;;;0.88;0.30;;;13.70;54.90;;;;;;5054217;28;20033;-72
2021/03/11 10:43:25;;;;;;;4.85;0.55;;;13.80;54.90;;;;;;5054267;28;20074;-72
2021/03/11 10:45:51;;;;;;;0.50;0.40;;;14.00;54.80;;;;;;5054366;28;20070;-72
2021/03/11 10:48:17;;;;;;;2.40;0.30;;;13.90;54.70;;;;;;5054349;28;20027;-72
2021/03/11 10:50:48;;;;;;;1.42;0.43;;;13.80;54.80;;;;;;5054267;28;20112;-72
2021/03/11 10:53:14;;;;;;;5.30;0.43;;;13.70;55.40;;;;;;5054347;28;20025;-71
2021/03/11 10:55:44;;;;;;;1.52;0.35;;;13.60;55.80;;;;;;5054379;28;20120;-72
2021/03/11 10:58:27;;;;;;;1.83;0.43;;;13.50;56.40;;;;;;5054249;28;20485;-72
2021/03/11 11:01:22;;;;;;;1.55;0.32;;;13.50;56.90;;;;;;5053970;28;20112;-70
2021/03/11 11:03:47;;;;;;;1.65;0.50;;;13.40;57.20;;;;;;5053952;28;20094;-72
2021/03/11 11:06:13;;;;;;;0.40;0.40;;;13.40;57.50;;;;;;5054017;28;20457;-72
2021/03/11 11:08:44;;;;;;;0.25;0.20;;;13.30;57.70;;;;;;5053803;28;20104;-71
2021/03/11 11:11:11;;;;;;;1.58;0.40;;;13.30;58.20;;;;;;5054137;28;20059;-73
2021/03/11 11:13:37;;;;;;;0.40;0.32;;;13.20;58.30;;;;;;5053505;28;20037;-70
2021/03/11 11:16:02;;;;;;;0.57;0.47;;;13.20;58.70;;;;;;5053714;28;20037;-71
2021/03/11 11:18:28;;;;;;;1.55;0.47;;;13.10;58.70;;;;;;5053579;28;20032;-71
2021/03/11 11:20:54;;;;;;;0.13;0.10;;;13.10;58.90;;;;;;5053654;28;20082;-72
2021/03/11 11:23:19;;;;;;;0.30;0.30;;;13.00;59.20;;;;;;5053977;28;20036;-71
2021/03/11 11:25:45;;;;;;;0.80;0.45;;;13.00;59.50;;;;;;5053637;28;20032;-70
2021/03/11 11:28:10;;;;;;;2.72;0.30;;;12.90;59.90;;;;;;5053579;28;20017;-71
2021/03/11 11:30:36;;;;;;;0.40;0.30;;;12.90;59.90;;;;;;5053316;28;20140;-71
2021/03/11 11:33:02;;;;;;;1.40;0.38;;;12.90;59.90;;;;;;5053419;28;20070;-72
2021/03/11 11:35:28;;;;;;;0.40;0.40;;;12.90;60.20;;;;;;5053590;28;20481;-71
2021/03/11 11:37:53;;;;;;;0.40;0.30;;;12.90;60.20;;;;;;5035684;28;20021;-73
2021/03/11 11:40:20;;;;;;;2.95;0.40;;;12.90;60.40;;;;;;5053656;28;20385;-72
2021/03/11 11:42:45;;;;;;;2.33;0.50;;;12.80;60.70;;;;;;5052509;28;20027;-72
2021/03/11 11:45:15;;;;;;;2.05;0.70;;;12.80;61.40;;;;;;5053393;28;20096;-71
2021/03/11 11:47:40;;;;;;;1.05;0.60;;;12.80;61.90;;;;;;5053450;28;20028;-73
2021/03/11 11:50:08;;;;;;;0.28;0.10;;;12.80;62.80;;;;;;5053415;28;20025;-71
2021/03/11 11:52:34;;;;;;;1.90;0.65;;;12.80;62.80;;;;;;5053955;28;20024;-73
2021/03/11 11:54:59;;;;;;;0.47;0.32;;;12.80;63.30;;;;;;5053060;28;20136;-73
2021/03/11 11:57:25;;;;;;;1.05;0.40;;;12.90;62.90;;;;;;5053251;28;20044;-72
2021/03/11 11:59:51;;;;;;;1.60;0.60;;;12.90;63.00;;;;;;5035302;28;20032;-72
2021/03/11 12:02:16;;;;;;;2.53;0.52;;;12.90;63.20;;;;;;5053076;28;20429;-73
2021/03/11 12:04:42;;;;;;;0.77;0.50;;;12.90;63.50;;;;;;5035026;28;20528;-73
2021/03/11 12:07:08;;;;;;;0.80;0.50;;;12.80;65.10;;;;;;5053008;28;20470;-73
2021/03/11 12:09:34;;;;;;;0.80;0.40;;;12.80;64.90;;;;;;5052981;28;20096;-73
2021/03/11 12:12:00;;;;;;;0.95;0.63;;;12.80;64.90;;;;;;5052786;28;20029;-73
2021/03/11 12:14:25;;;;;;;5.15;1.40;;;12.80;65.40;;;;;;5052655;28;20048;-73
2021/03/11 12:16:51;;;;;;;1.40;0.70;;;12.70;67.20;;;;;;5052834;28;20381;-73
2021/03/11 12:19:16;;;;;;;0.50;0.40;;;12.60;68.40;;;;;;5052704;28;20071;-73
2021/03/11 12:21:42;;;;;;;2.75;0.57;;;12.60;70.50;;;;;;5052766;28;20029;-73
2021/03/11 12:24:08;;;;;;;4.30;0.55;;;12.50;72.10;;;;;;5052577;28;20035;-73
2021/03/11 12:26:33;;;;;;;2.42;0.73;;;12.30;71.30;;;;;;5052593;28;20097;-73
2021/03/11 12:29:00;;;;;;;1.40;0.70;;;12.20;72.50;;;;;;5052532;28;20032;-72
2021/03/11 12:31:30;;;;;;;1.95;0.75;;;12.10;74.10;;;;;;5052760;28;20101;-73
2021/03/11 12:33:56;;;;;;;1.77;0.55;;;12.00;74.80;;;;;;5052321;28;20082;-73
2021/03/11 12:36:22;;;;;;;3.05;0.95;;;12.00;75.40;;;;;;5052474;28;20021;-72
2021/03/11 12:38:51;;;;;;;0.52;0.45;;;11.90;76.60;;;;;;5052380;28;20147;-73
2021/03/11 12:41:19;;;;;;;3.63;0.75;;;11.80;77.10;;;;;;5052490;28;20021;-72
2021/03/11 12:43:45;;;;;;;2.63;1.00;;;11.80;78.00;;;;;;5052187;28;20024;-73
2021/03/11 12:46:11;;;;;;;0.73;0.50;;;11.70;78.50;;;;;;5052475;28;20420;-71
2021/03/11 12:48:37;;;;;;;1.05;0.60;;;11.70;77.40;;;;;;5052450;28;20025;-72
2021/03/11 12:51:02;;;;;;;1.88;0.95;;;11.70;78.20;;;;;;5034553;28;20493;-72
2021/03/11 12:53:28;;;;;;;3.30;0.60;;;11.70;79.70;;;;;;5054064;28;20473;-72
2021/03/11 12:55:54;;;;;;;2.72;0.88;;;11.60;79.70;;;;;;5056599;28;20458;-70
2021/03/11 12:58:20;;;;;;;3.30;1.00;;;11.50;80.20;;;;;;5057335;28;20497;-72
2021/03/11 13:00:46;;;;;;;3.17;0.70;;;11.60;80.30;;;;;;5056704;28;20124;-71